sensor_id;sensor_type;location;lat;lon;timestamp;P1;durP1;ratioP1;P2;durP2;ratioP2
8415;SDS011;4245;42.120;24.732;2023-04-29T00:00:04;11.77;;;8.77;;
8415;SDS011;4245;42.120;24.732;2023-04-29T00:02:32;13.83;;;8.10;;
8415;SDS011;4245;42.120;24.732;2023-04-29T00:04:58;13.87;;;8.60;;
8415;SDS011;4245;42.120;24.732;2023-04-29T00:07:30;12.60;;;8.37;;
8415;SDS011;4245;42.120;24.732;2023-04-29T00:09:57;13.07;;;8.43;;
8415;SDS011;4245;42.120;24.732;2023-04-29T00:12:24;12.13;;;8.13;;
8415;SDS011;4245;42.120;24.732;2023-04-29T00:14:52;11.77;;;7.93;;
8415;SDS011;4245;42.120;24.732;2023-04-29T00:17:19;13.47;;;8.10;;
8415;SDS011;4245;42.120;24.732;2023-04-29T00:19:45;13.27;;;8.57;;
8415;SDS011;4245;42.120;24.732;2023-04-29T00:22:12;12.97;;;7.37;;
8415;SDS011;4245;42.120;24.732;2023-04-29T00:24:41;11.40;;;8.50;;
8415;SDS011;4245;42.120;24.732;2023-04-29T00:27:07;11.47;;;7.17;;
8415;SDS011;4245;42.120;24.732;2023-04-29T00:29:36;11.27;;;7.77;;
8415;SDS011;4245;42.120;24.732;2023-04-29T00:32:03;10.57;;;6.70;;
8415;SDS011;4245;42.120;24.732;2023-04-29T00:34:30;13.90;;;7.70;;
8415;SDS011;4245;42.120;24.732;2023-04-29T00:36:57;18.03;;;8.20;;
8415;SDS011;4245;42.120;24.732;2023-04-29T00:39:23;9.27;;;6.97;;
8415;SDS011;4245;42.120;24.732;2023-04-29T00:41:52;9.70;;;6.87;;
8415;SDS011;4245;42.120;24.732;2023-04-29T00:44:19;12.03;;;7.87;;
8415;SDS011;4245;42.120;24.732;2023-04-29T00:46:45;13.13;;;9.07;;
8415;SDS011;4245;42.120;24.732;2023-04-29T00:49:12;10.70;;;8.53;;
8415;SDS011;4245;42.120;24.732;2023-04-29T00:51:39;13.00;;;8.10;;
8415;SDS011;4245;42.120;24.732;2023-04-29T00:54:07;10.47;;;7.10;;
8415;SDS011;4245;42.120;24.732;2023-04-29T00:56:36;10.73;;;8.87;;
8415;SDS011;4245;42.120;24.732;2023-04-29T00:59:06;11.00;;;7.07;;
8415;SDS011;4245;42.120;24.732;2023-04-29T01:01:36;11.43;;;8.63;;
8415;SDS011;4245;42.120;24.732;2023-04-29T01:04:04;10.53;;;6.97;;
8415;SDS011;4245;42.120;24.732;2023-04-29T01:06:34;11.43;;;8.23;;
8415;SDS011;4245;42.120;24.732;2023-04-29T01:09:12;10.57;;;7.60;;
8415;SDS011;4245;42.120;24.732;2023-04-29T01:11:52;10.60;;;7.17;;
8415;SDS011;4245;42.120;24.732;2023-04-29T01:14:32;10.90;;;8.00;;
8415;SDS011;4245;42.120;24.732;2023-04-29T01:17:00;9.87;;;7.47;;
8415;SDS011;4245;42.120;24.732;2023-04-29T01:19:43;11.07;;;7.47;;
8415;SDS011;4245;42.120;24.732;2023-04-29T01:22:14;12.53;;;7.13;;
8415;SDS011;4245;42.120;24.732;2023-04-29T01:24:44;12.93;;;7.83;;
8415;SDS011;4245;42.120;24.732;2023-04-29T01:27:13;12.83;;;7.70;;
8415;SDS011;4245;42.120;24.732;2023-04-29T01:29:50;7.63;;;6.67;;
8415;SDS011;4245;42.120;24.732;2023-04-29T01:32:25;14.60;;;8.10;;
8415;SDS011;4245;42.120;24.732;2023-04-29T01:34:59;9.90;;;7.20;;
8415;SDS011;4245;42.120;24.732;2023-04-29T01:37:34;9.07;;;6.73;;
8415;SDS011;4245;42.120;24.732;2023-04-29T01:40:11;10.07;;;7.00;;
8415;SDS011;4245;42.120;24.732;2023-04-29T01:42:45;11.27;;;7.57;;
8415;SDS011;4245;42.120;24.732;2023-04-29T01:45:17;9.53;;;7.10;;
8415;SDS011;4245;42.120;24.732;2023-04-29T01:47:45;11.73;;;7.90;;
8415;SDS011;4245;42.120;24.732;2023-04-29T01:50:13;11.10;;;6.90;;
8415;SDS011;4245;42.120;24.732;2023-04-29T01:52:39;11.70;;;6.93;;
8415;SDS011;4245;42.120;24.732;2023-04-29T01:55:07;9.93;;;6.97;;
8415;SDS011;4245;42.120;24.732;2023-04-29T01:57:36;10.60;;;7.00;;
8415;SDS011;4245;42.120;24.732;2023-04-29T02:00:03;10.97;;;8.17;;
8415;SDS011;4245;42.120;24.732;2023-04-29T02:02:31;12.27;;;7.37;;
8415;SDS011;4245;42.120;24.732;2023-04-29T02:04:57;10.67;;;7.13;;
8415;SDS011;4245;42.120;24.732;2023-04-29T02:07:24;10.00;;;7.13;;
8415;SDS011;4245;42.120;24.732;2023-04-29T02:09:51;13.23;;;7.73;;
8415;SDS011;4245;42.120;24.732;2023-04-29T02:12:18;12.80;;;7.83;;
8415;SDS011;4245;42.120;24.732;2023-04-29T02:14:46;11.47;;;7.73;;
8415;SDS011;4245;42.120;24.732;2023-04-29T02:17:13;14.00;;;7.97;;
8415;SDS011;4245;42.120;24.732;2023-04-29T02:19:39;11.83;;;8.23;;
8415;SDS011;4245;42.120;24.732;2023-04-29T02:22:06;10.57;;;7.93;;
8415;SDS011;4245;42.120;24.732;2023-04-29T02:24:35;16.00;;;9.03;;
8415;SDS011;4245;42.120;24.732;2023-04-29T02:27:02;15.23;;;9.27;;
8415;SDS011;4245;42.120;24.732;2023-04-29T02:29:32;15.27;;;9.97;;
8415;SDS011;4245;42.120;24.732;2023-04-29T02:32:25;14.57;;;9.40;;
8415;SDS011;4245;42.120;24.732;2023-04-29T02:34:52;15.43;;;9.40;;
8415;SDS011;4245;42.120;24.732;2023-04-29T02:37:18;15.20;;;9.63;;
8415;SDS011;4245;42.120;24.732;2023-04-29T02:39:45;15.70;;;10.47;;
8415;SDS011;4245;42.120;24.732;2023-04-29T02:42:12;14.80;;;10.40;;
8415;SDS011;4245;42.120;24.732;2023-04-29T02:44:39;13.93;;;10.43;;
8415;SDS011;4245;42.120;24.732;2023-04-29T02:47:06;13.63;;;9.70;;
8415;SDS011;4245;42.120;24.732;2023-04-29T02:49:34;13.17;;;8.93;;
8415;SDS011;4245;42.120;24.732;2023-04-29T02:52:01;12.03;;;8.17;;
8415;SDS011;4245;42.120;24.732;2023-04-29T02:54:28;12.40;;;8.57;;
8415;SDS011;4245;42.120;24.732;2023-04-29T02:56:55;14.63;;;10.00;;
8415;SDS011;4245;42.120;24.732;2023-04-29T02:59:22;13.87;;;9.70;;
8415;SDS011;4245;42.120;24.732;2023-04-29T03:01:49;15.33;;;10.30;;
8415;SDS011;4245;42.120;24.732;2023-04-29T03:04:18;14.80;;;10.00;;
8415;SDS011;4245;42.120;24.732;2023-04-29T03:06:46;12.87;;;9.97;;
8415;SDS011;4245;42.120;24.732;2023-04-29T03:09:13;18.77;;;10.30;;
8415;SDS011;4245;42.120;24.732;2023-04-29T03:11:40;14.10;;;9.60;;
8415;SDS011;4245;42.120;24.732;2023-04-29T03:14:06;14.50;;;10.83;;
8415;SDS011;4245;42.120;24.732;2023-04-29T03:16:33;13.90;;;9.90;;
8415;SDS011;4245;42.120;24.732;2023-04-29T03:19:00;12.30;;;8.60;;
8415;SDS011;4245;42.120;24.732;2023-04-29T03:21:27;13.37;;;10.13;;
8415;SDS011;4245;42.120;24.732;2023-04-29T03:23:55;13.20;;;9.60;;
8415;SDS011;4245;42.120;24.732;2023-04-29T03:26:22;13.57;;;9.97;;
8415;SDS011;4245;42.120;24.732;2023-04-29T03:28:49;13.83;;;10.27;;
8415;SDS011;4245;42.120;24.732;2023-04-29T03:31:16;15.47;;;10.77;;
8415;SDS011;4245;42.120;24.732;2023-04-29T03:33:45;15.73;;;10.73;;
8415;SDS011;4245;42.120;24.732;2023-04-29T03:36:12;17.37;;;10.93;;
8415;SDS011;4245;42.120;24.732;2023-04-29T03:38:39;14.53;;;10.43;;
8415;SDS011;4245;42.120;24.732;2023-04-29T03:41:07;13.10;;;9.60;;
8415;SDS011;4245;42.120;24.732;2023-04-29T03:43:34;17.30;;;11.27;;
8415;SDS011;4245;42.120;24.732;2023-04-29T03:46:01;15.43;;;10.20;;
8415;SDS011;4245;42.120;24.732;2023-04-29T03:48:27;16.33;;;10.37;;
8415;SDS011;4245;42.120;24.732;2023-04-29T03:50:54;11.03;;;8.10;;
8415;SDS011;4245;42.120;24.732;2023-04-29T03:53:21;12.67;;;8.97;;
8415;SDS011;4245;42.120;24.732;2023-04-29T03:55:48;14.60;;;10.50;;
8415;SDS011;4245;42.120;24.732;2023-04-29T03:58:16;15.87;;;10.50;;
8415;SDS011;4245;42.120;24.732;2023-04-29T04:00:43;14.87;;;10.63;;
8415;SDS011;4245;42.120;24.732;2023-04-29T04:03:10;19.97;;;11.27;;
8415;SDS011;4245;42.120;24.732;2023-04-29T04:05:37;17.23;;;11.17;;
8415;SDS011;4245;42.120;24.732;2023-04-29T04:08:04;19.23;;;12.00;;
8415;SDS011;4245;42.120;24.732;2023-04-29T04:10:31;14.50;;;10.80;;
8415;SDS011;4245;42.120;24.732;2023-04-29T04:12:58;14.03;;;9.80;;
8415;SDS011;4245;42.120;24.732;2023-04-29T04:15:26;12.87;;;9.33;;
8415;SDS011;4245;42.120;24.732;2023-04-29T04:17:52;16.43;;;10.20;;
8415;SDS011;4245;42.120;24.732;2023-04-29T04:20:19;18.93;;;9.63;;
8415;SDS011;4245;42.120;24.732;2023-04-29T04:22:46;24.17;;;13.67;;
8415;SDS011;4245;42.120;24.732;2023-04-29T04:25:13;13.77;;;10.00;;
8415;SDS011;4245;42.120;24.732;2023-04-29T04:27:40;12.90;;;8.67;;
8415;SDS011;4245;42.120;24.732;2023-04-29T04:30:07;14.60;;;9.80;;
8415;SDS011;4245;42.120;24.732;2023-04-29T04:32:36;14.83;;;9.90;;
8415;SDS011;4245;42.120;24.732;2023-04-29T04:35:03;18.23;;;10.73;;
8415;SDS011;4245;42.120;24.732;2023-04-29T04:37:31;19.63;;;10.60;;
8415;SDS011;4245;42.120;24.732;2023-04-29T04:39:57;13.73;;;8.93;;
8415;SDS011;4245;42.120;24.732;2023-04-29T04:42:24;13.77;;;9.40;;
8415;SDS011;4245;42.120;24.732;2023-04-29T04:44:51;14.40;;;9.63;;
8415;SDS011;4245;42.120;24.732;2023-04-29T04:47:19;13.90;;;9.53;;
8415;SDS011;4245;42.120;24.732;2023-04-29T04:49:47;17.40;;;10.17;;
8415;SDS011;4245;42.120;24.732;2023-04-29T04:52:18;15.03;;;10.00;;
8415;SDS011;4245;42.120;24.732;2023-04-29T04:54:46;17.57;;;10.17;;
8415;SDS011;4245;42.120;24.732;2023-04-29T04:57:13;14.20;;;9.20;;
8415;SDS011;4245;42.120;24.732;2023-04-29T04:59:40;15.80;;;9.57;;
8415;SDS011;4245;42.120;24.732;2023-04-29T05:02:07;15.43;;;10.93;;
8415;SDS011;4245;42.120;24.732;2023-04-29T05:04:34;13.20;;;9.70;;
8415;SDS011;4245;42.120;24.732;2023-04-29T05:07:02;14.17;;;9.53;;
8415;SDS011;4245;42.120;24.732;2023-04-29T05:09:29;19.10;;;10.23;;
8415;SDS011;4245;42.120;24.732;2023-04-29T05:11:56;13.53;;;9.30;;
8415;SDS011;4245;42.120;24.732;2023-04-29T05:14:23;21.53;;;9.10;;
8415;SDS011;4245;42.120;24.732;2023-04-29T05:16:50;11.87;;;9.37;;
8415;SDS011;4245;42.120;24.732;2023-04-29T05:19:17;10.40;;;8.07;;
8415;SDS011;4245;42.120;24.732;2023-04-29T05:21:44;11.60;;;8.83;;
8415;SDS011;4245;42.120;24.732;2023-04-29T05:24:12;10.30;;;7.83;;
8415;SDS011;4245;42.120;24.732;2023-04-29T05:26:39;12.40;;;8.50;;
8415;SDS011;4245;42.120;24.732;2023-04-29T05:29:07;12.47;;;8.73;;
8415;SDS011;4245;42.120;24.732;2023-04-29T05:31:34;13.57;;;8.77;;
8415;SDS011;4245;42.120;24.732;2023-04-29T05:34:01;15.33;;;10.03;;
8415;SDS011;4245;42.120;24.732;2023-04-29T05:36:28;12.20;;;8.07;;
8415;SDS011;4245;42.120;24.732;2023-04-29T05:38:54;13.20;;;8.97;;
8415;SDS011;4245;42.120;24.732;2023-04-29T05:41:23;14.87;;;8.10;;
8415;SDS011;4245;42.120;24.732;2023-04-29T05:43:49;12.17;;;8.63;;
8415;SDS011;4245;42.120;24.732;2023-04-29T05:46:16;11.50;;;7.27;;
8415;SDS011;4245;42.120;24.732;2023-04-29T05:48:44;10.50;;;8.07;;
8415;SDS011;4245;42.120;24.732;2023-04-29T05:51:11;13.47;;;8.60;;
8415;SDS011;4245;42.120;24.732;2023-04-29T05:53:38;17.40;;;8.83;;
8415;SDS011;4245;42.120;24.732;2023-04-29T05:56:05;14.70;;;7.83;;
8415;SDS011;4245;42.120;24.732;2023-04-29T05:58:34;12.40;;;7.33;;
8415;SDS011;4245;42.120;24.732;2023-04-29T06:01:00;11.53;;;8.03;;
8415;SDS011;4245;42.120;24.732;2023-04-29T06:03:27;14.23;;;7.60;;
8415;SDS011;4245;42.120;24.732;2023-04-29T06:05:55;8.73;;;6.53;;
8415;SDS011;4245;42.120;24.732;2023-04-29T06:08:22;12.33;;;6.20;;
8415;SDS011;4245;42.120;24.732;2023-04-29T06:10:49;9.83;;;6.63;;
8415;SDS011;4245;42.120;24.732;2023-04-29T06:13:16;15.83;;;8.90;;
8415;SDS011;4245;42.120;24.732;2023-04-29T06:15:45;10.87;;;6.80;;
8415;SDS011;4245;42.120;24.732;2023-04-29T06:18:12;11.77;;;6.90;;
8415;SDS011;4245;42.120;24.732;2023-04-29T06:20:38;12.23;;;6.40;;
8415;SDS011;4245;42.120;24.732;2023-04-29T06:23:05;24.90;;;13.73;;
8415;SDS011;4245;42.120;24.732;2023-04-29T06:25:32;10.73;;;7.23;;
8415;SDS011;4245;42.120;24.732;2023-04-29T06:27:59;7.90;;;6.00;;
8415;SDS011;4245;42.120;24.732;2023-04-29T06:30:26;8.67;;;6.03;;
8415;SDS011;4245;42.120;24.732;2023-04-29T06:32:54;9.03;;;5.50;;
8415;SDS011;4245;42.120;24.732;2023-04-29T06:35:21;7.70;;;6.10;;
8415;SDS011;4245;42.120;24.732;2023-04-29T06:37:48;8.03;;;5.70;;
8415;SDS011;4245;42.120;24.732;2023-04-29T06:40:15;9.57;;;5.50;;
8415;SDS011;4245;42.120;24.732;2023-04-29T06:42:42;9.20;;;5.60;;
8415;SDS011;4245;42.120;24.732;2023-04-29T06:47:36;14.50;;;7.57;;
8415;SDS011;4245;42.120;24.732;2023-04-29T06:50:05;10.37;;;7.03;;
8415;SDS011;4245;42.120;24.732;2023-04-29T06:52:33;12.57;;;7.40;;
8415;SDS011;4245;42.120;24.732;2023-04-29T06:55:01;7.90;;;5.90;;
8415;SDS011;4245;42.120;24.732;2023-04-29T06:57:27;8.07;;;5.37;;
8415;SDS011;4245;42.120;24.732;2023-04-29T06:59:56;10.57;;;5.60;;
8415;SDS011;4245;42.120;24.732;2023-04-29T07:02:23;9.23;;;5.87;;
8415;SDS011;4245;42.120;24.732;2023-04-29T07:04:49;8.23;;;5.10;;
8415;SDS011;4245;42.120;24.732;2023-04-29T07:07:18;10.13;;;5.90;;
8415;SDS011;4245;42.120;24.732;2023-04-29T07:09:44;7.07;;;5.03;;
8415;SDS011;4245;42.120;24.732;2023-04-29T07:12:12;6.67;;;5.47;;
8415;SDS011;4245;42.120;24.732;2023-04-29T07:14:39;9.87;;;5.50;;
8415;SDS011;4245;42.120;24.732;2023-04-29T07:17:06;9.10;;;5.30;;
8415;SDS011;4245;42.120;24.732;2023-04-29T07:19:33;8.27;;;5.33;;
8415;SDS011;4245;42.120;24.732;2023-04-29T07:22:00;8.37;;;5.30;;
8415;SDS011;4245;42.120;24.732;2023-04-29T07:24:29;9.93;;;5.77;;
8415;SDS011;4245;42.120;24.732;2023-04-29T07:26:56;9.37;;;5.87;;
8415;SDS011;4245;42.120;24.732;2023-04-29T07:29:23;8.70;;;4.93;;
8415;SDS011;4245;42.120;24.732;2023-04-29T07:31:49;8.33;;;5.13;;
8415;SDS011;4245;42.120;24.732;2023-04-29T07:34:16;6.83;;;5.40;;
8415;SDS011;4245;42.120;24.732;2023-04-29T07:36:43;8.13;;;4.90;;
8415;SDS011;4245;42.120;24.732;2023-04-29T07:39:10;7.10;;;4.73;;
8415;SDS011;4245;42.120;24.732;2023-04-29T07:41:40;8.40;;;4.93;;
8415;SDS011;4245;42.120;24.732;2023-04-29T07:44:07;8.00;;;4.97;;
8415;SDS011;4245;42.120;24.732;2023-04-29T07:46:34;10.03;;;5.03;;
8415;SDS011;4245;42.120;24.732;2023-04-29T07:49:01;13.43;;;5.50;;
8415;SDS011;4245;42.120;24.732;2023-04-29T07:51:29;9.50;;;4.70;;
8415;SDS011;4245;42.120;24.732;2023-04-29T07:53:56;6.73;;;4.70;;
8415;SDS011;4245;42.120;24.732;2023-04-29T07:56:23;11.97;;;5.80;;
8415;SDS011;4245;42.120;24.732;2023-04-29T07:58:51;10.73;;;6.10;;
8415;SDS011;4245;42.120;24.732;2023-04-29T08:01:18;15.40;;;5.60;;
8415;SDS011;4245;42.120;24.732;2023-04-29T08:03:45;10.33;;;5.40;;
8415;SDS011;4245;42.120;24.732;2023-04-29T08:06:11;8.83;;;4.93;;
8415;SDS011;4245;42.120;24.732;2023-04-29T08:08:38;7.07;;;4.90;;
8415;SDS011;4245;42.120;24.732;2023-04-29T08:11:05;7.90;;;4.83;;
8415;SDS011;4245;42.120;24.732;2023-04-29T08:13:32;6.10;;;4.83;;
8415;SDS011;4245;42.120;24.732;2023-04-29T08:16:00;7.00;;;4.73;;
8415;SDS011;4245;42.120;24.732;2023-04-29T08:18:27;10.60;;;5.10;;
8415;SDS011;4245;42.120;24.732;2023-04-29T08:20:53;11.57;;;5.57;;
8415;SDS011;4245;42.120;24.732;2023-04-29T08:23:20;11.90;;;5.50;;
8415;SDS011;4245;42.120;24.732;2023-04-29T08:25:47;8.50;;;5.53;;
8415;SDS011;4245;42.120;24.732;2023-04-29T08:28:16;10.47;;;7.03;;
8415;SDS011;4245;42.120;24.732;2023-04-29T08:30:43;10.83;;;7.60;;
8415;SDS011;4245;42.120;24.732;2023-04-29T08:33:11;8.60;;;5.20;;
8415;SDS011;4245;42.120;24.732;2023-04-29T08:35:38;11.07;;;5.50;;
8415;SDS011;4245;42.120;24.732;2023-04-29T08:38:06;7.03;;;5.10;;
8415;SDS011;4245;42.120;24.732;2023-04-29T08:40:34;8.35;;;5.32;;
8415;SDS011;4245;42.120;24.732;2023-04-29T08:43:02;9.32;;;5.90;;
8415;SDS011;4245;42.120;24.732;2023-04-29T08:45:29;13.93;;;6.03;;
8415;SDS011;4245;42.120;24.732;2023-04-29T08:47:58;10.33;;;6.50;;
8415;SDS011;4245;42.120;24.732;2023-04-29T08:50:29;13.10;;;7.63;;
8415;SDS011;4245;42.120;24.732;2023-04-29T08:52:56;11.37;;;5.80;;
8415;SDS011;4245;42.120;24.732;2023-04-29T08:55:23;10.77;;;5.40;;
8415;SDS011;4245;42.120;24.732;2023-04-29T08:57:50;9.93;;;5.53;;
8415;SDS011;4245;42.120;24.732;2023-04-29T09:00:20;8.00;;;5.70;;
8415;SDS011;4245;42.120;24.732;2023-04-29T09:02:49;7.23;;;5.30;;
8415;SDS011;4245;42.120;24.732;2023-04-29T09:05:16;9.13;;;5.40;;
8415;SDS011;4245;42.120;24.732;2023-04-29T09:07:45;8.47;;;4.40;;
8415;SDS011;4245;42.120;24.732;2023-04-29T09:10:12;9.85;;;4.88;;
8415;SDS011;4245;42.120;24.732;2023-04-29T09:12:41;9.07;;;5.05;;
8415;SDS011;4245;42.120;24.732;2023-04-29T09:15:08;6.47;;;5.13;;
8415;SDS011;4245;42.120;24.732;2023-04-29T09:17:39;6.90;;;5.07;;
8415;SDS011;4245;42.120;24.732;2023-04-29T09:22:57;8.02;;;5.63;;
8415;SDS011;4245;42.120;24.732;2023-04-29T09:25:25;14.38;;;7.30;;
8415;SDS011;4245;42.120;24.732;2023-04-29T09:27:52;12.02;;;7.45;;
8415;SDS011;4245;42.120;24.732;2023-04-29T09:30:19;12.60;;;6.57;;
8415;SDS011;4245;42.120;24.732;2023-04-29T09:33:02;6.85;;;5.50;;
8415;SDS011;4245;42.120;24.732;2023-04-29T09:35:30;7.50;;;5.30;;
8415;SDS011;4245;42.120;24.732;2023-04-29T09:40:41;10.57;;;5.90;;
8415;SDS011;4245;42.120;24.732;2023-04-29T09:43:12;14.85;;;5.90;;
8415;SDS011;4245;42.120;24.732;2023-04-29T09:45:41;8.43;;;5.20;;
8415;SDS011;4245;42.120;24.732;2023-04-29T09:48:09;7.43;;;5.15;;
8415;SDS011;4245;42.120;24.732;2023-04-29T09:50:37;9.07;;;5.07;;
8415;SDS011;4245;42.120;24.732;2023-04-29T09:53:05;10.65;;;5.50;;
8415;SDS011;4245;42.120;24.732;2023-04-29T09:55:34;12.10;;;5.40;;
8415;SDS011;4245;42.120;24.732;2023-04-29T09:58:01;8.95;;;5.88;;
8415;SDS011;4245;42.120;24.732;2023-04-29T10:00:29;10.43;;;6.03;;
8415;SDS011;4245;42.120;24.732;2023-04-29T10:02:59;6.07;;;4.78;;
8415;SDS011;4245;42.120;24.732;2023-04-29T10:05:27;8.25;;;4.80;;
8415;SDS011;4245;42.120;24.732;2023-04-29T10:07:57;10.88;;;5.20;;
8415;SDS011;4245;42.120;24.732;2023-04-29T10:10:25;11.55;;;5.32;;
8415;SDS011;4245;42.120;24.732;2023-04-29T10:12:55;12.98;;;6.75;;
8415;SDS011;4245;42.120;24.732;2023-04-29T10:15:25;11.07;;;5.72;;
8415;SDS011;4245;42.120;24.732;2023-04-29T10:17:57;9.55;;;6.22;;
8415;SDS011;4245;42.120;24.732;2023-04-29T10:20:28;7.60;;;5.60;;
8415;SDS011;4245;42.120;24.732;2023-04-29T10:22:55;8.93;;;6.00;;
8415;SDS011;4245;42.120;24.732;2023-04-29T10:25:24;8.57;;;5.10;;
8415;SDS011;4245;42.120;24.732;2023-04-29T10:27:52;6.50;;;4.45;;
8415;SDS011;4245;42.120;24.732;2023-04-29T10:30:23;6.45;;;4.20;;
8415;SDS011;4245;42.120;24.732;2023-04-29T10:32:50;4.93;;;3.88;;
8415;SDS011;4245;42.120;24.732;2023-04-29T10:35:17;6.40;;;4.00;;
8415;SDS011;4245;42.120;24.732;2023-04-29T10:37:47;7.70;;;4.18;;
8415;SDS011;4245;42.120;24.732;2023-04-29T10:40:15;7.03;;;4.03;;
8415;SDS011;4245;42.120;24.732;2023-04-29T10:42:46;5.07;;;4.22;;
8415;SDS011;4245;42.120;24.732;2023-04-29T10:45:22;6.53;;;4.00;;
8415;SDS011;4245;42.120;24.732;2023-04-29T10:48:10;5.00;;;3.70;;
8415;SDS011;4245;42.120;24.732;2023-04-29T10:53:27;6.95;;;4.30;;
8415;SDS011;4245;42.120;24.732;2023-04-29T10:55:55;6.47;;;4.45;;
8415;SDS011;4245;42.120;24.732;2023-04-29T10:58:33;8.40;;;5.20;;
8415;SDS011;4245;42.120;24.732;2023-04-29T11:01:11;8.30;;;5.43;;
8415;SDS011;4245;42.120;24.732;2023-04-29T11:03:52;7.70;;;4.97;;
8415;SDS011;4245;42.120;24.732;2023-04-29T11:06:37;5.63;;;3.90;;
8415;SDS011;4245;42.120;24.732;2023-04-29T11:09:10;7.40;;;4.18;;
8415;SDS011;4245;42.120;24.732;2023-04-29T11:11:41;4.63;;;4.22;;
8415;SDS011;4245;42.120;24.732;2023-04-29T11:14:11;6.93;;;3.97;;
8415;SDS011;4245;42.120;24.732;2023-04-29T11:16:46;5.80;;;4.18;;
8415;SDS011;4245;42.120;24.732;2023-04-29T11:19:16;5.80;;;3.83;;
8415;SDS011;4245;42.120;24.732;2023-04-29T11:21:43;7.57;;;4.18;;
8415;SDS011;4245;42.120;24.732;2023-04-29T11:24:11;4.50;;;3.95;;
8415;SDS011;4245;42.120;24.732;2023-04-29T11:26:40;7.38;;;4.07;;
8415;SDS011;4245;42.120;24.732;2023-04-29T11:29:07;7.35;;;4.78;;
8415;SDS011;4245;42.120;24.732;2023-04-29T11:31:34;7.70;;;3.80;;
8415;SDS011;4245;42.120;24.732;2023-04-29T11:34:04;9.40;;;3.92;;
8415;SDS011;4245;42.120;24.732;2023-04-29T11:36:32;6.32;;;3.90;;
8415;SDS011;4245;42.120;24.732;2023-04-29T11:38:59;6.95;;;4.00;;
8415;SDS011;4245;42.120;24.732;2023-04-29T11:41:26;4.78;;;3.47;;
8415;SDS011;4245;42.120;24.732;2023-04-29T11:43:53;9.48;;;5.30;;
8415;SDS011;4245;42.120;24.732;2023-04-29T11:46:22;7.35;;;3.88;;
8415;SDS011;4245;42.120;24.732;2023-04-29T11:48:49;7.43;;;3.80;;
8415;SDS011;4245;42.120;24.732;2023-04-29T11:51:17;8.38;;;3.97;;
8415;SDS011;4245;42.120;24.732;2023-04-29T11:53:45;5.28;;;3.60;;
8415;SDS011;4245;42.120;24.732;2023-04-29T11:56:12;4.88;;;3.80;;
8415;SDS011;4245;42.120;24.732;2023-04-29T11:58:40;5.15;;;3.58;;
8415;SDS011;4245;42.120;24.732;2023-04-29T12:01:08;7.22;;;3.67;;
8415;SDS011;4245;42.120;24.732;2023-04-29T12:03:35;6.85;;;4.05;;
8415;SDS011;4245;42.120;24.732;2023-04-29T12:06:02;9.98;;;4.82;;
8415;SDS011;4245;42.120;24.732;2023-04-29T12:08:30;14.45;;;4.35;;
8415;SDS011;4245;42.120;24.732;2023-04-29T12:10:59;8.43;;;3.90;;
8415;SDS011;4245;42.120;24.732;2023-04-29T12:13:27;4.47;;;3.72;;
8415;SDS011;4245;42.120;24.732;2023-04-29T12:15:54;5.63;;;3.78;;
8415;SDS011;4245;42.120;24.732;2023-04-29T12:18:23;4.32;;;3.72;;
8415;SDS011;4245;42.120;24.732;2023-04-29T12:20:51;6.05;;;3.30;;
8415;SDS011;4245;42.120;24.732;2023-04-29T12:23:20;9.70;;;4.75;;
8415;SDS011;4245;42.120;24.732;2023-04-29T12:25:49;8.73;;;4.20;;
8415;SDS011;4245;42.120;24.732;2023-04-29T12:28:17;7.32;;;3.88;;
8415;SDS011;4245;42.120;24.732;2023-04-29T12:30:45;11.18;;;5.03;;
8415;SDS011;4245;42.120;24.732;2023-04-29T12:33:14;8.48;;;3.85;;
8415;SDS011;4245;42.120;24.732;2023-04-29T12:35:43;9.00;;;7.55;;
8415;SDS011;4245;42.120;24.732;2023-04-29T12:38:10;6.45;;;3.65;;
8415;SDS011;4245;42.120;24.732;2023-04-29T12:40:40;6.22;;;3.80;;
8415;SDS011;4245;42.120;24.732;2023-04-29T12:43:09;3.55;;;3.25;;
8415;SDS011;4245;42.120;24.732;2023-04-29T12:45:37;5.10;;;4.00;;
8415;SDS011;4245;42.120;24.732;2023-04-29T12:48:04;7.30;;;3.60;;
8415;SDS011;4245;42.120;24.732;2023-04-29T12:50:32;8.63;;;4.00;;
8415;SDS011;4245;42.120;24.732;2023-04-29T12:53:00;7.20;;;3.72;;
8415;SDS011;4245;42.120;24.732;2023-04-29T12:55:30;9.48;;;4.18;;
8415;SDS011;4245;42.120;24.732;2023-04-29T12:57:58;8.07;;;4.00;;
8415;SDS011;4245;42.120;24.732;2023-04-29T13:00:26;5.38;;;3.75;;
8415;SDS011;4245;42.120;24.732;2023-04-29T13:02:53;6.75;;;3.63;;
8415;SDS011;4245;42.120;24.732;2023-04-29T13:05:20;3.97;;;3.55;;
8415;SDS011;4245;42.120;24.732;2023-04-29T13:07:47;6.70;;;3.42;;
8415;SDS011;4245;42.120;24.732;2023-04-29T13:10:14;6.68;;;3.72;;
8415;SDS011;4245;42.120;24.732;2023-04-29T13:12:41;4.73;;;3.30;;
8415;SDS011;4245;42.120;24.732;2023-04-29T13:15:08;13.03;;;6.90;;
8415;SDS011;4245;42.120;24.732;2023-04-29T13:17:37;7.35;;;4.75;;
8415;SDS011;4245;42.120;24.732;2023-04-29T13:20:05;4.32;;;3.53;;
8415;SDS011;4245;42.120;24.732;2023-04-29T13:22:33;7.07;;;3.65;;
8415;SDS011;4245;42.120;24.732;2023-04-29T13:25:01;4.70;;;3.22;;
8415;SDS011;4245;42.120;24.732;2023-04-29T13:27:28;7.43;;;4.00;;
8415;SDS011;4245;42.120;24.732;2023-04-29T13:29:55;4.97;;;4.00;;
8415;SDS011;4245;42.120;24.732;2023-04-29T13:32:22;5.20;;;3.65;;
8415;SDS011;4245;42.120;24.732;2023-04-29T13:34:50;4.70;;;3.90;;
8415;SDS011;4245;42.120;24.732;2023-04-29T13:37:17;6.45;;;3.45;;
8415;SDS011;4245;42.120;24.732;2023-04-29T13:39:45;7.72;;;4.93;;
8415;SDS011;4245;42.120;24.732;2023-04-29T13:42:11;9.20;;;4.45;;
8415;SDS011;4245;42.120;24.732;2023-04-29T13:44:38;6.57;;;3.95;;
8415;SDS011;4245;42.120;24.732;2023-04-29T13:47:08;11.82;;;5.88;;
8415;SDS011;4245;42.120;24.732;2023-04-29T13:49:36;8.15;;;5.07;;
8415;SDS011;4245;42.120;24.732;2023-04-29T13:52:04;14.40;;;6.53;;
8415;SDS011;4245;42.120;24.732;2023-04-29T13:54:31;7.57;;;4.00;;
8415;SDS011;4245;42.120;24.732;2023-04-29T13:56:58;5.75;;;3.65;;
8415;SDS011;4245;42.120;24.732;2023-04-29T13:59:25;5.82;;;3.47;;
8415;SDS011;4245;42.120;24.732;2023-04-29T14:01:52;8.15;;;3.58;;
8415;SDS011;4245;42.120;24.732;2023-04-29T14:04:19;4.83;;;3.80;;
8415;SDS011;4245;42.120;24.732;2023-04-29T14:06:46;9.20;;;4.30;;
8415;SDS011;4245;42.120;24.732;2023-04-29T14:09:14;6.40;;;3.93;;
8415;SDS011;4245;42.120;24.732;2023-04-29T14:11:41;6.93;;;4.23;;
8415;SDS011;4245;42.120;24.732;2023-04-29T14:14:08;11.93;;;4.30;;
8415;SDS011;4245;42.120;24.732;2023-04-29T14:16:35;5.20;;;3.67;;
8415;SDS011;4245;42.120;24.732;2023-04-29T14:19:01;8.73;;;3.87;;
8415;SDS011;4245;42.120;24.732;2023-04-29T14:21:29;8.10;;;3.90;;
8415;SDS011;4245;42.120;24.732;2023-04-29T14:23:57;11.50;;;4.10;;
8415;SDS011;4245;42.120;24.732;2023-04-29T14:26:25;6.07;;;3.70;;
8415;SDS011;4245;42.120;24.732;2023-04-29T14:28:52;8.82;;;3.30;;
8415;SDS011;4245;42.120;24.732;2023-04-29T14:31:21;5.30;;;3.47;;
8415;SDS011;4245;42.120;24.732;2023-04-29T14:33:48;10.47;;;3.87;;
8415;SDS011;4245;42.120;24.732;2023-04-29T14:36:16;7.22;;;3.50;;
8415;SDS011;4245;42.120;24.732;2023-04-29T14:38:43;6.15;;;3.60;;
8415;SDS011;4245;42.120;24.732;2023-04-29T14:41:09;9.38;;;3.55;;
8415;SDS011;4245;42.120;24.732;2023-04-29T14:43:38;6.27;;;3.67;;
8415;SDS011;4245;42.120;24.732;2023-04-29T14:46:05;7.27;;;3.47;;
8415;SDS011;4245;42.120;24.732;2023-04-29T14:48:32;8.77;;;4.70;;
8415;SDS011;4245;42.120;24.732;2023-04-29T14:50:59;4.50;;;3.80;;
8415;SDS011;4245;42.120;24.732;2023-04-29T14:53:26;7.00;;;3.90;;
8415;SDS011;4245;42.120;24.732;2023-04-29T14:55:52;7.35;;;4.00;;
8415;SDS011;4245;42.120;24.732;2023-04-29T14:58:19;6.53;;;3.87;;
8415;SDS011;4245;42.120;24.732;2023-04-29T15:00:48;5.17;;;3.20;;
8415;SDS011;4245;42.120;24.732;2023-04-29T15:03:15;5.73;;;3.33;;
8415;SDS011;4245;42.120;24.732;2023-04-29T15:05:42;5.13;;;3.60;;
8415;SDS011;4245;42.120;24.732;2023-04-29T15:08:09;7.23;;;4.03;;